Time;durP1;ratioP1;P1;durP2;ratioP2;P2;SDS_P1;SDS_P2;PMS_P1;PMS_P2;Temp;Humidity;BMP_temperature;BMP_pressure;BME280_temperature;BME280_humidity;BME280_pressure;Samples;Min_cycle;Max_cycle;Signal;HPM_P1;HPM_P2
2022/06/18 00:00:24;;;;;;;10.32;6.05;;;;;;;21.70;57.96;101639.84;5113499;28;20084;-50
2022/06/18 00:02:50;;;;;;;19.25;6.03;;;;;;;21.61;58.06;101639.84;5112839;28;20077;-48
2022/06/18 00:05:18;;;;;;;13.10;5.50;;;;;;;21.59;58.13;101641.63;5113729;28;20032;-50
2022/06/18 00:07:47;;;;;;;14.48;6.70;;;;;;;21.54;58.75;101643.38;5113640;28;20023;-50
2022/06/18 00:10:20;;;;;;;9.38;5.35;;;;;;;21.51;58.49;101640.72;5112385;28;20440;-48
2022/06/18 00:15:34;;;;;;;8.60;5.72;;;;;;;21.34;59.50;101638.16;5113631;28;20492;-49
2022/06/18 00:17:59;;;;;;;13.95;5.55;;;;;;;21.32;59.37;101626.81;5111801;28;20118;-48
2022/06/18 00:20:27;;;;;;;9.07;5.35;;;;;;;21.25;59.74;101630.31;5113342;28;20386;-49
2022/06/18 00:22:56;;;;;;;9.48;5.65;;;;;;;21.18;60.22;101627.72;5113179;28;20019;-49
2022/06/18 00:25:26;;;;;;;20.38;6.15;;;;;;;21.07;60.48;101633.84;5112459;28;20032;-49
2022/06/18 00:27:51;;;;;;;11.43;7.00;;;;;;;21.04;60.56;101627.75;5113255;28;20023;-50
2022/06/18 00:30:20;;;;;;;9.90;5.60;;;;;;;20.99;61.12;101621.66;5113377;28;20036;-50
2022/06/18 00:32:46;;;;;;;11.38;6.07;;;;;;;20.92;61.58;101619.91;5112592;28;20110;-50
2022/06/18 00:35:12;;;;;;;11.02;5.78;;;;;;;20.83;61.60;101633.03;5112896;28;20103;-49
2022/06/18 00:37:38;;;;;;;14.73;6.10;;;;;;;20.77;61.98;101630.41;5113105;28;20467;-49
2022/06/18 00:40:40;;;;;;;10.15;6.47;;;;;;;20.74;60.73;101627.78;5112074;28;20425;-50
2022/06/18 00:43:17;;;;;;;14.07;6.75;;;;;;;20.66;61.87;101631.22;5030424;28;20034;-50
2022/06/18 00:45:42;;;;;;;11.63;7.20;;;;;;;20.62;62.73;101628.59;5102266;28;20063;-48
2022/06/18 00:48:50;;;;;;;9.65;6.53;;;;;;;20.52;63.10;101632.97;5112845;28;20457;-49
2022/06/18 00:51:23;;;;;;;11.23;5.95;;;;;;;20.47;63.27;101629.47;5030375;28;20091;-50
2022/06/18 00:53:55;;;;;;;15.50;6.78;;;;;;;20.36;64.04;101626.84;5029744;28;20096;-46
2022/06/18 00:56:30;;;;;;;10.57;6.53;;;;;;;20.33;64.34;101624.22;5076256;28;20113;-50
2022/06/18 00:59:09;;;;;;;12.90;5.97;;;;;;;20.21;64.55;101627.69;5112794;28;20405;-50
2022/06/18 01:01:38;;;;;;;17.40;7.55;;;;;;;20.18;64.77;101625.94;5112979;28;20466;-50
2022/06/18 01:04:31;;;;;;;9.32;6.32;;;;;;;20.13;63.82;101624.16;5112783;28;20571;-50
2022/06/18 01:07:34;;;;;;;10.45;6.40;;;;;;;20.13;64.26;101618.94;5112161;28;20028;-50
2022/06/18 01:10:01;;;;;;;15.57;7.15;;;;;;;20.05;65.73;101627.66;5112886;28;20039;-50
2022/06/18 01:12:27;;;;;;;11.60;6.90;;;;;;;20.07;65.44;101625.03;5113029;28;20070;-50
2022/06/18 01:15:06;;;;;;;11.38;6.65;;;;;;;20.05;65.05;101611.06;5112051;28;20073;-46
2022/06/18 01:17:33;;;;;;;17.50;7.80;;;;;;;20.02;65.57;101618.94;5112824;28;20104;-50
2022/06/18 01:20:00;;;;;;;10.25;7.10;;;;;;;20.01;65.57;101617.19;5112831;28;20023;-51
2022/06/18 01:22:32;;;;;;;14.23;7.47;;;;;;;19.99;65.80;101609.31;5112164;28;20020;-49
2022/06/18 01:24:57;;;;;;;12.45;7.68;;;;;;;19.99;65.94;101611.94;5112664;28;20039;-50
2022/06/18 01:27:23;;;;;;;12.68;7.25;;;;;;;19.95;66.34;101607.56;5111937;28;20020;-50
2022/06/18 01:29:48;;;;;;;17.65;8.27;;;;;;;19.93;66.33;101597.97;5116331;28;20024;-50
2022/06/18 01:32:15;;;;;;;13.00;7.65;;;;;;;19.88;66.78;101597.94;5116461;28;20032;-50
2022/06/18 01:34:41;;;;;;;18.73;7.82;;;;;;;19.85;66.62;101604.03;5115868;28;20024;-50
2022/06/18 01:37:08;;;;;;;14.15;8.35;;;;;;;19.87;66.64;101604.03;5116272;28;20027;-49
2022/06/18 01:39:37;;;;;;;17.23;8.30;;;;;;;19.85;66.82;101605.81;5116376;28;20085;-50
2022/06/18 01:42:31;;;;;;;12.30;7.70;;;;;;;19.84;66.01;101607.53;5115355;28;20023;-50
2022/06/18 01:45:05;;;;;;;14.07;7.75;;;;;;;19.81;67.23;101611.88;5116303;28;20020;-49
2022/06/18 01:47:40;;;;;;;16.55;8.68;;;;;;;19.78;66.79;101610.09;5116249;28;20111;-50
2022/06/18 01:50:12;;;;;;;16.05;9.02;;;;;;;19.71;67.22;101614.41;5115270;28;20023;-50
2022/06/18 01:52:43;;;;;;;15.75;8.45;;;;;;;19.62;68.43;101606.53;5116057;28;20031;-49
2022/06/18 01:55:14;;;;;;;16.88;8.48;;;;;;;19.55;68.44;101603.03;5116027;28;20122;-50
2022/06/18 01:57:45;;;;;;;13.07;8.82;;;;;;;19.55;68.33;101605.66;5115224;28;20036;-51
2022/06/18 02:00:19;;;;;;;19.25;9.45;;;;;;;19.53;68.33;101596.06;5115863;28;20038;-49
2022/06/18 02:02:45;;;;;;;14.27;8.57;;;;;;;19.49;68.51;101584.69;5115116;28;20036;-49
2022/06/18 02:05:13;;;;;;;17.40;9.38;;;;;;;19.50;68.76;101590.81;5115680;28;20051;-50
2022/06/18 02:07:39;;;;;;;13.95;9.00;;;;;;;19.49;69.04;101594.28;5115787;28;20032;-50
2022/06/18 02:10:16;;;;;;;15.18;8.95;;;;;;;19.47;68.52;101593.41;5115001;28;20076;-49
2022/06/18 02:12:41;;;;;;;19.65;9.82;;;;;;;19.45;69.46;101589.94;5115910;28;20023;-49
2022/06/18 02:15:30;;;;;;;14.55;9.30;;;;;;;19.44;68.40;101590.78;5115336;28;20081;-48
2022/06/18 02:17:58;;;;;;;16.25;9.13;;;;;;;19.41;69.75;101584.66;5114551;28;20026;-50
2022/06/18 02:20:27;;;;;;;14.07;9.43;;;;;;;19.39;69.58;101589.03;5115587;28;20031;-50
2022/06/18 02:22:56;;;;;;;18.15;9.85;;;;;;;19.38;69.64;101589.88;5115484;28;20099;-50
2022/06/18 02:25:25;;;;;;;16.23;9.77;;;;;;;19.36;69.61;101594.22;5114543;28;20051;-50
2022/06/18 02:27:56;;;;;;;20.83;10.95;;;;;;;19.36;69.77;101588.13;5115357;28;20028;-50
2022/06/18 02:30:25;;;;;;;23.17;10.43;;;;;;;19.36;69.71;101586.38;5115134;28;20046;-46
2022/06/18 02:33:12;;;;;;;16.63;10.55;;;;;;;19.38;68.60;101587.28;5114893;28;20031;-50
2022/06/18 02:35:38;;;;;;;15.18;10.25;;;;;;;19.37;69.64;101582.91;5115343;28;20039;-51
2022/06/18 02:38:15;;;;;;;17.58;10.82;;;;;;;19.37;69.27;101590.75;5114328;28;20015;-50
2022/06/18 02:40:40;;;;;;;21.38;10.90;;;;;;;19.33;69.75;101581.16;5114372;28;20467;-50
2022/06/18 02:43:06;;;;;;;17.98;11.38;;;;;;;19.35;69.70;101584.66;5115205;28;20030;-50
2022/06/18 02:45:32;;;;;;;17.92;10.98;;;;;;;19.30;70.16;101577.66;5114228;28;20027;-50
2022/06/18 02:47:59;;;;;;;15.15;11.05;;;;;;;19.30;69.67;101586.38;5115034;28;20026;-48
2022/06/18 02:50:28;;;;;;;19.50;11.70;;;;;;;19.29;70.01;101586.34;5114847;28;20035;-50
2022/06/18 02:52:56;;;;;;;15.93;11.48;;;;;;;19.29;70.22;101582.00;5113905;28;20459;-50
2022/06/18 02:55:47;;;;;;;16.05;10.63;;;;;;;19.28;69.82;101579.41;5114770;28;20081;-50
2022/06/18 02:58:20;;;;;;;24.17;12.68;;;;;;;19.27;69.89;101581.13;5114371;28;20078;-49
2022/06/18 03:01:00;;;;;;;20.90;11.35;;;;;;;19.28;69.77;101585.47;5114112;28;20107;-49
2022/06/18 03:03:29;;;;;;;20.33;11.98;;;;;;;19.25;69.78;101580.25;5114628;28;20108;-50
2022/06/18 03:05:55;;;;;;;22.13;12.15;;;;;;;19.23;70.44;101577.59;5113665;28;20024;-50
2022/06/18 03:08:22;;;;;;;16.73;11.60;;;;;;;19.20;70.03;101588.06;5114576;28;20061;-46
2022/06/18 03:13:31;;;;;;;17.92;11.50;;;;;;;19.14;70.17;101592.38;5113704;28;20038;-50
2022/06/18 03:15:57;;;;;;;23.60;12.45;;;;;;;19.08;70.47;101588.84;5114258;28;20071;-50
2022/06/18 03:18:25;;;;;;;23.35;12.48;;;;;;;19.08;70.15;101594.09;5114015;28;20462;-50
2022/06/18 03:21:09;;;;;;;20.48;11.98;;;;;;;19.07;69.88;101584.50;5113408;28;20027;-49
2022/06/18 03:23:35;;;;;;;25.02;12.00;;;;;;;19.10;70.25;101595.84;5114616;28;20077;-50
2022/06/18 03:26:01;;;;;;;26.98;13.00;;;;;;;19.09;70.04;101594.94;5114223;28;20024;-50
2022/06/18 03:28:27;;;;;;;28.73;12.68;;;;;;;19.07;69.77;101597.56;5113324;28;20027;-49
2022/06/18 03:30:52;;;;;;;27.15;12.20;;;;;;;19.06;69.95;101601.03;5113909;28;20023;-50
2022/06/18 03:33:18;;;;;;;18.33;12.18;;;;;;;19.06;69.95;101595.81;5114177;28;20483;-49
2022/06/18 03:35:47;;;;;;;25.88;13.40;;;;;;;19.06;69.79;101595.81;5113149;28;20033;-50
2022/06/18 03:38:14;;;;;;;20.85;12.88;;;;;;;19.06;69.55;101595.81;5113574;28;20055;-50
2022/06/18 03:40:39;;;;;;;21.05;12.68;;;;;;;19.05;69.45;101606.25;5114046;28;20033;-50
2022/06/18 03:43:05;;;;;;;26.23;13.23;;;;;;;19.04;70.19;101605.38;5112940;28;20447;-50
2022/06/18 03:45:39;;;;;;;23.60;12.70;;;;;;;19.00;70.50;101611.44;5113701;28;20500;-51
2022/06/18 03:48:05;;;;;;;39.15;13.73;;;;;;;19.02;70.24;101604.50;5112838;28;20036;-50
2022/06/18 03:50:31;;;;;;;30.35;13.15;;;;;;;18.96;70.52;101608.81;5113914;28;20055;-49
2022/06/18 03:52:56;;;;;;;22.73;13.07;;;;;;;18.95;70.77;101607.91;5112759;28;20063;-49
2022/06/18 03:55:21;;;;;;;24.77;14.02;;;;;;;18.89;71.25;101603.53;5112889;28;20133;-50
2022/06/18 03:57:46;;;;;;;23.90;14.48;;;;;;;18.86;71.30;101599.97;5113362;28;20062;-49
2022/06/18 04:00:22;;;;;;;26.60;14.93;;;;;;;18.86;70.71;101605.22;5113565;28;20027;-50
2022/06/18 04:02:47;;;;;;;30.00;14.85;;;;;;;18.85;71.61;101595.63;5113030;28;20471;-49
2022/06/18 04:05:13;;;;;;;37.67;14.93;;;;;;;18.86;71.33;101597.38;5113375;28;20034;-50
2022/06/18 04:07:40;;;;;;;22.23;14.15;;;;;;;18.86;71.84;101592.16;5113629;28;20516;-50
2022/06/18 04:10:06;;;;;;;24.58;14.18;;;;;;;18.88;71.65;101595.66;5112661;28;20030;-50
2022/06/18 04:12:32;;;;;;;30.77;14.85;;;;;;;18.86;72.06;101589.53;5113440;28;20026;-50
2022/06/18 04:14:57;;;;;;;30.25;14.63;;;;;;;18.88;72.19;101580.84;5113524;28;20367;-49
2022/06/18 04:17:22;;;;;;;25.92;15.07;;;;;;;18.92;72.00;101585.25;5112721;28;20440;-49
2022/06/18 04:19:48;;;;;;;26.23;16.05;;;;;;;18.94;72.23;101585.28;5113261;28;20050;-50
2022/06/18 04:22:13;;;;;;;26.77;16.10;;;;;;;18.94;72.10;101582.69;5113096;28;20027;-50
2022/06/18 04:24:39;;;;;;;24.02;15.43;;;;;;;18.97;71.83;101581.81;5112482;28;20107;-48
2022/06/18 04:27:05;;;;;;;24.70;16.55;;;;;;;19.00;71.49;101579.22;5113006;28;20027;-50
2022/06/18 04:29:31;;;;;;;34.90;15.75;;;;;;;19.03;71.50;101579.22;5113450;28;20371;-51
2022/06/18 04:31:57;;;;;;;27.10;16.90;;;;;;;19.06;71.77;101580.13;5112381;28;20032;-50
2022/06/18 04:34:22;;;;;;;27.08;16.35;;;;;;;19.07;71.60;101579.28;5113299;28;20096;-49
2022/06/18 04:36:48;;;;;;;30.65;16.20;;;;;;;19.10;72.24;101581.03;5113337;28;20023;-50
2022/06/18 04:39:13;;;;;;;32.55;17.98;;;;;;;19.14;71.08;101587.16;5112070;28;20023;-49
2022/06/18 04:41:39;;;;;;;31.02;17.67;;;;;;;19.17;71.36;101587.16;5113002;28;20020;-48
2022/06/18 04:44:05;;;;;;;29.35;18.63;;;;;;;19.19;71.26;101588.91;5112388;28;20467;-47
2022/06/18 04:46:30;;;;;;;30.48;17.45;;;;;;;19.23;71.05;101587.19;5113205;28;20023;-50
2022/06/18 04:48:56;;;;;;;31.70;17.75;;;;;;;19.26;71.18;101584.59;5113173;28;20107;-50
2022/06/18 04:51:21;;;;;;;31.50;18.15;;;;;;;19.30;71.26;101583.75;5112179;28;20060;-50
2022/06/18 04:53:48;;;;;;;30.52;19.45;;;;;;;19.32;70.82;101592.47;5113163;28;20468;-49
2022/06/18 04:56:14;;;;;;;36.63;19.48;;;;;;;19.36;70.83;101591.59;5112474;28;20022;-49
2022/06/18 04:58:39;;;;;;;30.45;20.10;;;;;;;19.38;71.37;101584.66;5112378;28;20028;-50
2022/06/18 05:01:04;;;;;;;34.25;20.80;;;;;;;19.42;70.99;101589.03;5113029;28;20019;-50
2022/06/18 05:03:30;;;;;;;33.33;20.27;;;;;;;19.46;70.83;101589.03;5114650;28;20030;-50
2022/06/18 05:05:56;;;;;;;37.10;20.77;;;;;;;19.49;70.87;101589.94;5116059;28;20030;-50
2022/06/18 05:08:21;;;;;;;37.47;21.35;;;;;;;19.53;71.78;101588.22;5116936;28;20073;-49
2022/06/18 05:10:47;;;;;;;38.95;21.00;;;;;;;19.57;70.94;101592.56;5116827;28;20028;-49
2022/06/18 05:13:13;;;;;;;33.15;20.67;;;;;;;19.60;70.98;101594.34;5115921;28;20090;-50
2022/06/18 05:15:39;;;;;;;38.45;22.02;;;;;;;19.62;70.73;101593.47;5116984;28;20413;-49
2022/06/18 05:18:05;;;;;;;37.92;21.58;;;;;;;19.66;70.16;101597.84;5116609;28;20076;-49
2022/06/18 05:20:30;;;;;;;35.78;21.40;;;;;;;19.71;71.15;101601.34;5115912;28;20027;-48
2022/06/18 05:22:55;;;;;;;29.40;20.13;;;;;;;19.77;70.84;101605.75;5116406;28;20028;-50
2022/06/18 05:25:21;;;;;;;31.50;20.52;;;;;;;19.79;70.78;101604.00;5116358;28;20024;-50
2022/06/18 05:27:47;;;;;;;31.35;19.23;;;;;;;19.84;71.25;101609.28;5116022;28;20028;-50
2022/06/18 05:30:18;;;;;;;33.75;19.92;;;;;;;19.89;70.44;101610.16;5116322;28;20016;-50
2022/06/18 05:32:44;;;;;;;35.00;20.15;;;;;;;19.91;70.12;101608.44;5116616;28;20031;-51
2022/06/18 05:35:11;;;;;;;27.67;19.15;;;;;;;19.97;70.32;101608.44;5115347;28;20032;-50
2022/06/18 05:37:37;;;;;;;36.05;19.88;;;;;;;20.03;71.14;101613.69;5116432;28;20031;-49
2022/06/18 05:40:04;;;;;;;34.43;18.57;;;;;;;20.09;70.19;101615.47;5116039;28;20027;-50
2022/06/18 05:42:30;;;;;;;32.17;18.95;;;;;;;20.14;70.24;101607.59;5115613;28;20276;-50
2022/06/18 05:44:55;;;;;;;34.10;20.27;;;;;;;20.18;69.93;101617.22;5116175;28;20020;-49
2022/06/18 05:47:23;;;;;;;30.88;18.40;;;;;;;20.23;69.88;101618.97;5115721;28;20055;-49
2022/06/18 05:49:51;;;;;;;43.33;20.08;;;;;;;20.30;69.39;101617.25;5116253;28;20031;-50
2022/06/18 05:52:16;;;;;;;31.08;18.15;;;;;;;20.35;69.05;101614.63;5116069;28;20020;-49
2022/06/18 05:54:41;;;;;;;35.40;19.60;;;;;;;20.39;69.17;101617.25;5115242;28;20050;-50
2022/06/18 05:57:07;;;;;;;32.22;18.70;;;;;;;20.48;69.05;101615.53;5115719;28;20050;-49
2022/06/18 05:59:33;;;;;;;34.22;19.48;;;;;;;20.51;68.14;101615.50;5115975;28;20098;-48
2022/06/18 06:01:59;;;;;;;37.08;19.63;;;;;;;20.56;69.41;101609.41;5114991;28;20032;-49
2022/06/18 06:04:26;;;;;;;38.72;20.65;;;;;;;20.64;67.91;101617.25;5115666;28;20030;-49
2022/06/18 06:06:51;;;;;;;30.00;18.33;;;;;;;20.72;68.19;101614.66;5115578;28;20055;-50
2022/06/18 06:11:28;;;;;;;36.55;20.05;;;;;;;20.80;68.65;101607.69;5114882;28;20044;-49
2022/06/18 06:12:04;;;;;;;33.27;18.93;;;;;;;20.84;68.01;101598.97;5115549;28;20120;-50
2022/06/18 06:14:29;;;;;;;32.77;19.73;;;;;;;20.94;67.65;101606.78;5114619;28;20043;-50
2022/06/18 06:16:57;;;;;;;42.47;20.95;;;;;;;20.96;66.19;101587.56;5114618;28;20385;-50
2022/06/18 06:19:22;;;;;;;35.35;20.42;;;;;;;21.05;66.12;101595.41;5115292;28;20031;-50
2022/06/18 06:21:47;;;;;;;36.95;19.45;;;;;;;21.10;66.09;101595.41;5115791;28;20102;-50
2022/06/18 06:24:13;;;;;;;35.30;19.58;;;;;;;21.16;65.72;101600.66;5114497;28;20024;-50
2022/06/18 06:26:38;;;;;;;38.47;20.77;;;;;;;21.21;65.36;101595.38;5115571;28;20475;-50
2022/06/18 06:29:03;;;;;;;34.85;19.63;;;;;;;21.31;66.12;101588.38;5115380;28;20034;-50
2022/06/18 06:31:28;;;;;;;39.88;20.02;;;;;;;21.38;65.59;101585.72;5114416;28;20459;-50
2022/06/18 06:33:54;;;;;;;38.83;18.50;;;;;;;21.47;65.80;101599.66;5115061;28;20077;-50
2022/06/18 06:36:20;;;;;;;42.47;18.98;;;;;;;21.57;65.53;101595.31;5115000;28;20119;-50
2022/06/18 06:38:45;;;;;;;34.30;19.30;;;;;;;21.60;64.97;101598.78;5114549;28;20063;-51
2022/06/18 06:41:15;;;;;;;38.13;19.58;;;;;;;21.67;63.85;101603.13;5115063;28;20065;-51
2022/06/18 06:43:41;;;;;;;33.88;18.63;;;;;;;21.70;63.71;101596.97;5114159;28;20356;-50
2022/06/18 06:46:11;;;;;;;37.40;20.00;;;;;;;21.78;63.77;101596.94;5114804;28;20019;-46
2022/06/18 06:48:36;;;;;;;35.95;18.45;;;;;;;21.84;63.89;101602.16;5114948;28;20024;-49
2022/06/18 06:51:01;;;;;;;41.92;17.70;;;;;;;21.94;64.36;101603.84;5113903;28;20096;-49
2022/06/18 06:53:26;;;;;;;41.47;19.50;;;;;;;21.97;62.85;101595.09;5114999;28;20486;-51
2022/06/18 06:58:35;;;;;;;33.40;18.02;;;;;;;22.12;62.81;101588.91;5114348;28;20138;-50
2022/06/18 07:01:01;;;;;;;40.17;17.10;;;;;;;22.23;62.55;101602.78;5114553;28;20077;-50
2022/06/18 07:03:30;;;;;;;34.60;18.10;;;;;;;22.29;61.99;101605.38;5114579;28;20034;-51
2022/06/18 07:05:56;;;;;;;39.80;17.73;;;;;;;22.40;61.71;101605.34;5113548;28;20391;-50
2022/06/18 07:08:22;;;;;;;34.35;16.67;;;;;;;22.47;62.53;101603.53;5114690;28;20094;-50
2022/06/18 07:10:50;;;;;;;39.45;15.68;;;;;;;22.53;62.53;101600.88;5114724;28;20023;-50
2022/06/18 07:13:16;;;;;;;;;;;;;;;22.64;61.78;101606.88;5113976;28;20490;-50
2022/06/18 07:15:41;;;;;;;39.50;16.52;;;;;;;22.72;61.65;101595.44;5114362;28;19912;-51
2022/06/18 07:18:14;;;;;;;30.23;16.83;;;;;;;22.79;60.80;101607.66;5114264;28;20027;-49
2022/06/18 07:20:40;;;;;;;38.55;17.42;;;;;;;22.88;60.54;101606.69;5113727;28;20019;-51
2022/06/18 07:23:05;;;;;;;37.60;18.83;;;;;;;22.91;60.09;101612.78;5114191;28;20076;-50
2022/06/18 07:25:30;;;;;;;41.58;17.17;;;;;;;23.00;61.27;101610.06;5113778;28;20085;-51
2022/06/18 07:27:56;;;;;;;35.88;16.42;;;;;;;23.11;61.29;101609.06;5113409;28;20024;-51
2022/06/18 07:30:21;;;;;;;34.97;17.45;;;;;;;23.16;60.37;101612.56;5114077;28;20019;-50
2022/06/18 07:32:49;;;;;;;33.42;15.77;;;;;;;23.24;60.37;101617.75;5114312;28;20070;-50
2022/06/18 07:35:18;;;;;;;39.35;16.98;;;;;;;23.29;59.41;101606.28;5113455;28;20031;-50
2022/06/18 07:37:44;;;;;;;34.03;16.50;;;;;;;23.35;59.44;101600.94;5114035;28;20103;-50
2022/06/18 07:40:10;;;;;;;33.08;17.42;;;;;;;23.44;58.86;101602.59;5112812;28;20119;-50
2022/06/18 07:42:35;;;;;;;41.03;17.08;;;;;;;23.50;59.45;101604.31;5113930;28;20081;-50
2022/06/18 07:45:00;;;;;;;37.35;16.98;;;;;;;23.58;59.05;101602.44;5113639;28;20028;-50
2022/06/18 07:47:26;;;;;;;43.28;18.85;;;;;;;23.66;58.53;101597.06;5113118;28;20496;-49
2022/06/18 07:49:51;;;;;;;37.47;18.60;;;;;;;23.73;59.06;101597.84;5113743;28;20077;-51
2022/06/18 07:52:16;;;;;;;40.75;18.65;;;;;;;23.82;59.07;101595.09;5113822;28;20031;-50
2022/06/18 07:54:43;;;;;;;31.27;18.25;;;;;;;23.92;58.85;101588.84;5112950;28;20023;-50
2022/06/18 07:57:09;;;;;;;40.17;17.77;;;;;;;24.07;58.79;101592.16;5113247;28;20040;-50
2022/06/18 07:59:34;;;;;;;41.95;21.05;;;;;;;24.07;57.23;101592.16;5113455;28;20297;-50
2022/06/18 08:01:59;;;;;;;45.97;19.30;;;;;;;24.11;57.58;101592.06;5112804;28;20027;-50
2022/06/18 08:04:26;;;;;;;37.40;19.67;;;;;;;24.16;56.89;101594.66;5113383;28;20116;-50
2022/06/18 08:06:52;;;;;;;37.55;18.75;;;;;;;24.19;57.04;101576.16;5113502;28;20270;-50
2022/06/18 08:09:17;;;;;;;40.33;18.25;;;;;;;24.34;57.95;101580.31;5112474;28;20035;-50
2022/06/18 08:11:42;;;;;;;34.22;17.70;;;;;;;24.42;58.09;101581.06;5113474;28;20068;-50
2022/06/18 08:14:08;;;;;;;37.63;18.50;;;;;;;24.51;58.56;101581.81;5113174;28;20023;-50
2022/06/18 08:16:34;;;;;;;38.40;19.02;;;;;;;24.67;57.55;101579.81;5112865;28;20035;-48
2022/06/18 08:19:00;;;;;;;36.38;16.63;;;;;;;24.78;57.66;101569.94;5113372;28;20375;-50
2022/06/18 08:21:30;;;;;;;39.05;18.40;;;;;;;24.81;56.30;101573.38;5113307;28;20024;-50
2022/06/18 08:24:04;;;;;;;39.75;18.33;;;;;;;24.94;57.15;101566.09;5112565;28;20020;-49
2022/06/18 08:26:30;;;;;;;42.00;19.20;;;;;;;25.07;57.67;101565.88;5113174;28;20084;-50
2022/06/18 08:28:55;;;;;;;42.17;17.10;;;;;;;25.17;57.71;101561.31;5113332;28;20020;-50
2022/06/18 08:31:21;;;;;;;33.83;18.52;;;;;;;25.16;54.87;101560.41;5112399;28;20368;-51
2022/06/18 08:33:47;;;;;;;39.85;18.75;;;;;;;25.15;54.08;101556.03;5113340;28;20496;-50
2022/06/18 08:36:17;;;;;;;43.05;18.45;;;;;;;25.15;54.63;101553.38;5112279;28;20455;-49
2022/06/18 08:38:46;;;;;;;33.10;16.92;;;;;;;25.27;54.51;101554.94;5115483;28;20023;-50
2022/06/18 08:41:43;;;;;;;48.22;18.80;;;;;;;25.46;56.27;101563.34;5117228;28;20031;-50
2022/06/18 08:44:33;;;;;;;47.65;19.05;;;;;;;25.57;53.83;101571.06;5116658;28;20208;-46
2022/06/18 08:47:15;;;;;;;44.70;19.05;;;;;;;25.70;54.39;101574.28;5117246;28;20067;-47
2022/06/18 08:49:58;;;;;;;47.45;20.80;;;;;;;25.76;53.77;101566.25;5117550;28;20107;-48
2022/06/18 08:52:55;;;;;;;43.42;19.60;;;;;;;25.88;54.94;101571.22;5116549;28;20032;-51
2022/06/18 08:55:32;;;;;;;;;;;;;;;26.02;54.51;101577.97;5117592;28;20089;-50
2022/06/18 08:58:11;;;;;;;46.92;20.55;;;;;;;26.07;56.17;101571.69;5115913;28;19916;-49
2022/06/18 09:00:49;;;;;;;40.80;19.88;;;;;;;26.20;55.50;101568.78;5117211;28;20096;-47
2022/06/18 09:03:41;;;;;;;43.70;19.92;;;;;;;26.25;55.28;101575.66;5117061;28;20149;-47
2022/06/18 09:06:44;;;;;;;44.38;19.80;;;;;;;26.42;53.67;101572.59;5115953;28;20052;-50
2022/06/18 09:09:17;;;;;;;40.88;17.83;;;;;;;26.59;53.97;101574.81;5116859;28;20080;-50
2022/06/18 09:12:09;;;;;;;44.72;18.83;;;;;;;26.81;56.25;101584.00;5116040;28;20388;-50
2022/06/18 09:14:47;;;;;;;50.35;18.65;;;;;;;26.98;53.70;101584.38;5107538;28;20039;-48
2022/06/18 09:17:30;;;;;;;40.00;16.95;;;;;;;27.19;53.44;101580.28;5116663;28;20023;-49
2022/06/18 09:20:03;;;;;;;47.42;18.15;;;;;;;27.32;52.43;101583.44;5115792;28;20035;-50
2022/06/18 09:22:32;;;;;;;44.40;16.92;;;;;;;27.25;49.55;101580.09;5116615;28;20586;-50
2022/06/18 09:25:03;;;;;;;47.13;16.23;;;;;;;27.53;51.72;101579.31;5116325;28;20020;-49
2022/06/18 09:27:45;;;;;;;36.75;15.77;;;;;;;27.68;51.16;101579.78;5115938;28;20093;-50
2022/06/18 09:30:19;;;;;;;38.08;16.17;;;;;;;27.80;50.95;101579.41;5116362;28;20027;-49
2022/06/18 09:32:56;;;;;;;40.92;16.20;;;;;;;27.87;49.64;101577.41;5115735;28;20050;-49
2022/06/18 09:35:29;;;;;;;;;;;;;;;28.01;51.37;101575.19;5116787;28;20023;-51
2022/06/18 09:38:09;;;;;;;36.90;15.85;;;;;;;28.09;51.62;101567.91;5116423;28;19911;-50
2022/06/18 09:40:50;;;;;;;48.20;16.38;;;;;;;28.35;49.33;101573.25;5115506;28;20375;-51
2022/06/18 09:43:31;;;;;;;34.80;15.48;;;;;;;28.29;48.20;101570.81;5116213;28;20020;-49
2022/06/18 09:45:59;;;;;;;35.65;16.45;;;;;;;28.37;47.24;101574.09;5116329;28;20020;-49
2022/06/18 09:48:24;;;;;;;32.97;17.35;;;;;;;28.67;48.17;101552.75;5115108;28;20395;-51
2022/06/18 09:50:53;;;;;;;35.38;14.43;;;;;;;28.96;46.01;101556.13;5116035;28;20467;-50
2022/06/18 09:53:33;;;;;;;38.60;14.65;;;;;;;29.36;46.04;101549.38;5115937;28;20429;-48
2022/06/18 09:56:10;;;;;;;42.22;15.30;;;;;;;29.31;45.96;101551.34;5116044;28;20084;-52
2022/06/18 09:58:51;;;;;;;33.58;13.55;;;;;;;29.59;45.31;101559.09;5116126;28;20063;-50
2022/06/18 10:01:23;;;;;;;37.70;13.40;;;;;;;30.02;44.56;101548.56;5115210;28;20028;-51
2022/06/18 10:06:55;;;;;;;36.58;12.15;;;;;;;30.55;44.17;101544.59;5115763;28;20063;-49
2022/06/18 10:09:28;;;;;;;24.42;11.43;;;;;;;30.35;39.78;101542.78;5115030;28;20027;-50
2022/06/18 10:11:53;;;;;;;35.47;10.95;;;;;;;30.30;40.00;101539.44;5115665;28;20016;-50
2022/06/18 10:14:21;;;;;;;33.80;11.68;;;;;;;30.34;39.82;101541.03;5115626;28;20027;-51
2022/06/18 10:17:05;;;;;;;24.85;10.88;;;;;;;30.44;40.99;101536.19;5114847;28;20095;-51
2022/06/18 10:19:58;;;;;;;36.45;12.48;;;;;;;30.43;40.06;101537.13;5115400;28;20462;-47
2022/06/18 10:22:47;;;;;;;36.55;11.30;;;;;;;30.72;41.17;101538.53;5114701;28;20127;-49
2022/06/18 10:25:29;;;;;;;30.23;11.55;;;;;;;31.15;39.60;101533.94;5115759;28;20020;-50
2022/06/18 10:28:07;;;;;;;33.55;10.75;;;;;;;32.05;37.64;101540.34;5115321;28;20031;-51
2022/06/18 10:30:51;;;;;;;28.73;10.93;;;;;;;32.13;36.40;101539.97;5114826;28;20108;-51
2022/06/18 10:33:32;;;;;;;31.83;10.93;;;;;;;32.54;36.56;101534.34;5115197;28;20443;-51
2022/06/18 10:36:19;;;;;;;33.88;11.00;;;;;;;32.91;36.69;101529.75;5114353;28;20089;-51
2022/06/18 10:39:00;;;;;;;30.67;11.32;;;;;;;33.62;35.72;101541.00;5115356;28;20024;-51
2022/06/18 10:41:47;;;;;;;34.55;12.23;;;;;;;33.96;34.39;101528.38;5115266;28;20133;-50
2022/06/18 10:44:41;;;;;;;30.17;10.25;;;;;;;33.74;33.13;101532.28;5114120;28;20038;-49
2022/06/18 10:47:11;;;;;;;38.35;11.55;;;;;;;33.77;32.47;101521.41;5114156;28;20472;-52
2022/06/18 10:49:36;;;;;;;28.52;12.10;;;;;;;33.73;32.54;101517.19;5115125;28;20038;-50
2022/06/18 10:52:02;;;;;;;25.13;10.40;;;;;;;34.53;34.88;101521.47;5114186;28;20479;-52
2022/06/18 10:54:33;;;;;;;27.87;10.30;;;;;;;34.75;32.53;101516.50;5114744;28;20087;-52
2022/06/18 10:57:00;;;;;;;36.00;11.35;;;;;;;34.95;31.85;101511.72;5113946;28;20317;-51
2022/06/18 10:59:31;;;;;;;26.88;10.82;;;;;;;35.62;32.59;101511.03;5114834;28;20063;-52
2022/06/18 11:02:23;;;;;;;30.67;10.25;;;;;;;35.87;30.98;101514.75;5114069;28;20023;-51
2022/06/18 11:05:02;;;;;;;30.75;10.93;;;;;;;36.84;30.73;101510.81;5113409;28;20475;-52
2022/06/18 11:07:29;;;;;;;28.70;10.38;;;;;;;36.57;28.81;101508.22;5114798;28;20020;-50
2022/06/18 11:10:05;;;;;;;29.75;10.32;;;;;;;37.28;29.65;101504.97;5114446;28;20040;-52
2022/06/18 11:12:34;;;;;;;25.55;8.95;;;;;;;37.46;28.56;101500.97;5113722;28;20020;-49
2022/06/18 11:15:03;;;;;;;26.33;11.65;;;;;;;37.44;27.78;101491.28;5114472;28;20063;-52
2022/06/18 11:17:32;;;;;;;25.38;9.23;;;;;;;37.98;29.76;101485.41;5114208;28;20020;-51
2022/06/18 11:20:19;;;;;;;25.95;11.23;;;;;;;38.42;29.34;101487.47;5113393;28;20375;-52
2022/06/18 11:22:54;;;;;;;26.95;10.38;;;;;;;38.21;27.28;101486.31;5114483;28;20081;-53
2022/06/18 11:25:44;;;;;;;26.58;9.85;;;;;;;38.29;27.30;101476.81;5113384;28;20088;-52
2022/06/18 11:28:20;;;;;;;36.75;11.18;;;;;;;37.51;27.46;101471.03;5114268;28;20096;-52
2022/06/18 11:30:48;;;;;;;23.67;9.32;;;;;;;37.44;27.00;101462.56;5114181;28;20536;-52
2022/06/18 11:33:56;;;;;;;26.90;9.27;;;;;;;37.79;28.48;101468.94;5113167;28;20019;-53
2022/06/18 11:36:33;;;;;;;27.90;9.73;;;;;;;38.18;27.46;101458.78;5031316;28;20424;-53
2022/06/18 11:39:00;;;;;;;35.88;10.80;;;;;;;37.90;27.68;101447.50;5103301;28;20039;-52